createdAt,value
2018-01-15T00:00:19.720Z,14.10
2018-01-15T00:02:47.988Z,15.10
2018-01-15T00:05:16.196Z,14.02
2018-01-15T00:07:44.353Z,14.15
2018-01-15T00:10:12.500Z,14.25
2018-01-15T00:12:41.389Z,12.93
2018-01-15T00:15:10.285Z,14.10
2018-01-15T00:17:39.201Z,12.68
2018-01-15T00:20:07.344Z,13.55
2018-01-15T00:22:36.243Z,13.75
2018-01-15T00:25:05.169Z,12.98
2018-01-15T00:27:33.320Z,12.90
2018-01-15T00:30:01.608Z,13.38
2018-01-15T00:32:29.748Z,12.65
2018-01-15T00:34:58.695Z,12.70
2018-01-15T00:37:26.819Z,11.48
2018-01-15T00:39:55.737Z,12.80
2018-01-15T00:42:23.880Z,13.88
2018-01-15T00:44:52.911Z,12.90
2018-01-15T00:47:21.061Z,12.05
2018-01-15T00:49:55.703Z,12.55
2018-01-15T00:52:23.848Z,11.38
2018-01-15T00:54:52.875Z,11.20
2018-01-15T00:57:21.089Z,14.70
2018-01-15T00:59:49.229Z,13.05
2018-01-15T01:02:17.526Z,14.35
2018-01-15T01:04:45.672Z,12.98
2018-01-15T01:24:28.699Z,12.57
2018-01-15T01:26:56.832Z,11.95
2018-01-15T01:29:24.977Z,13.55
2018-01-15T01:31:53.233Z,15.43
2018-01-15T01:34:21.367Z,12.55
2018-01-15T01:36:50.257Z,11.27
2018-01-15T01:39:18.515Z,12.80
2018-01-15T01:41:46.754Z,12.88
2018-01-15T01:44:14.877Z,12.35
2018-01-15T01:46:43.011Z,12.20
2018-01-15T01:49:11.198Z,13.60
2018-01-15T01:51:39.327Z,13.98
2018-01-15T01:54:08.131Z,12.73
2018-01-15T01:56:36.251Z,12.10
2018-01-15T01:59:04.382Z,12.63
2018-01-15T02:01:32.513Z,14.38
2018-01-15T02:04:00.747Z,12.88
2018-01-15T02:06:28.998Z,11.95
2018-01-15T02:08:57.639Z,11.65
2018-01-15T02:11:25.863Z,14.55
2018-01-15T02:13:54.127Z,11.30
2018-01-15T02:16:23.093Z,12.75
2018-01-15T02:18:51.385Z,12.75
2018-01-15T02:21:20.585Z,12.48
2018-01-15T02:23:48.687Z,13.52
2018-01-15T02:26:16.808Z,12.57
2018-01-15T02:28:44.939Z,12.20
2018-01-15T02:31:13.312Z,12.85
2018-01-15T02:33:41.443Z,15.07
2018-01-15T02:36:10.331Z,13.55
2018-01-15T02:38:39.252Z,11.48
2018-01-15T02:41:07.388Z,12.10
2018-01-15T02:43:35.561Z,12.37
2018-01-15T02:46:03.688Z,13.70
2018-01-15T02:48:31.855Z,12.85
2018-01-15T02:50:59.980Z,13.30
2018-01-15T02:53:28.110Z,11.50
2018-01-15T02:55:56.264Z,14.38
2018-01-15T02:58:24.439Z,14.18
2018-01-15T03:00:52.727Z,13.60
2018-01-15T03:03:20.831Z,12.55
2018-01-15T03:05:48.960Z,12.77
2018-01-15T03:08:17.135Z,12.55
2018-01-15T03:10:45.286Z,11.50
2018-01-15T03:13:14.193Z,12.68
2018-01-15T03:15:43.076Z,13.80
2018-01-15T03:18:11.981Z,12.43
2018-01-15T03:20:40.103Z,12.37
2018-01-15T03:23:08.262Z,13.57
2018-01-15T03:25:36.390Z,11.82
2018-01-15T03:28:05.292Z,13.35
2018-01-15T03:30:33.432Z,13.07
2018-01-15T03:33:01.627Z,12.23
2018-01-15T03:35:30.499Z,13.15
2018-01-15T03:37:58.664Z,12.43
2018-01-15T03:40:26.799Z,12.50
2018-01-15T03:42:54.932Z,13.30
2018-01-15T03:45:23.856Z,12.05
2018-01-15T03:47:52.007Z,12.48
2018-01-15T03:50:20.920Z,11.73
2018-01-15T03:52:49.096Z,13.18
2018-01-15T03:55:17.228Z,13.10
2018-01-15T03:57:45.395Z,11.77
2018-01-15T04:00:13.528Z,13.27
2018-01-15T04:02:41.680Z,13.05
2018-01-15T04:05:09.822Z,13.48
2018-01-15T04:07:37.963Z,14.70
2018-01-15T04:10:06.123Z,16.08
2018-01-15T04:12:34.285Z,11.50
2018-01-15T04:15:02.415Z,13.57
2018-01-15T04:17:30.572Z,14.23
2018-01-15T04:19:58.721Z,12.02
2018-01-15T04:22:26.844Z,12.52
2018-01-15T04:24:54.980Z,12.68
2018-01-15T04:27:23.109Z,12.82
2018-01-15T04:29:52.120Z,14.77
2018-01-15T04:32:20.253Z,12.95
2018-01-15T04:34:48.468Z,12.07
2018-01-15T04:37:16.642Z,15.00
2018-01-15T04:39:44.799Z,13.35
2018-01-15T04:42:13.723Z,14.38
2018-01-15T04:44:41.880Z,13.65
2018-01-15T04:47:10.011Z,15.13
2018-01-15T04:49:38.142Z,12.18
2018-01-15T04:52:06.297Z,14.10
2018-01-15T04:54:34.463Z,14.25
2018-01-15T04:57:02.616Z,13.85
2018-01-15T04:59:31.516Z,12.70
2018-01-15T05:02:00.452Z,12.75
2018-01-15T05:04:28.574Z,14.05
2018-01-15T05:06:57.520Z,14.07
2018-01-15T05:09:25.673Z,14.57
2018-01-15T05:11:53.796Z,14.87
2018-01-15T05:14:21.943Z,15.07
2018-01-15T05:16:50.075Z,14.55
2018-01-15T05:19:18.215Z,14.93
2018-01-15T05:21:46.373Z,13.30
2018-01-15T05:24:14.520Z,14.15
2018-01-15T05:26:42.689Z,13.62
2018-01-15T05:29:10.808Z,14.45
2018-01-15T05:31:39.036Z,14.98
2018-01-15T05:34:07.156Z,13.20
2018-01-15T05:36:35.348Z,13.00
2018-01-15T05:39:04.253Z,14.13
2018-01-15T05:41:33.171Z,14.45
2018-01-15T05:44:01.282Z,15.80
2018-01-15T05:46:29.465Z,15.02
2018-01-15T05:48:57.591Z,13.73
2018-01-15T05:51:25.721Z,14.13
2018-01-15T05:53:53.902Z,17.17
2018-01-15T05:56:22.840Z,14.05
2018-01-15T05:58:50.976Z,14.00
2018-01-15T06:01:19.136Z,15.25
2018-01-15T06:03:48.092Z,13.77
2018-01-15T06:06:16.264Z,13.45
2018-01-15T06:08:44.431Z,16.77
2018-01-15T06:11:12.573Z,14.25
2018-01-15T06:13:40.736Z,13.62
2018-01-15T06:16:09.652Z,14.80
2018-01-15T06:18:37.771Z,14.70
2018-01-15T06:21:05.924Z,14.40
2018-01-15T06:23:34.088Z,17.20
2018-01-15T06:26:02.285Z,15.52
2018-01-15T06:28:30.889Z,16.90
2018-01-15T06:30:59.096Z,16.85
2018-01-15T06:33:27.256Z,14.57
2018-01-15T06:35:56.187Z,15.30
2018-01-15T06:38:24.382Z,15.63
2018-01-15T06:40:52.628Z,14.93
2018-01-15T06:43:20.767Z,15.07
2018-01-15T06:45:49.692Z,14.48
2018-01-15T06:48:17.857Z,14.60
2018-01-15T06:50:45.999Z,14.32
2018-01-15T06:53:14.215Z,16.12
2018-01-15T06:55:42.340Z,14.73
2018-01-15T06:58:10.496Z,16.00
2018-01-15T07:00:38.636Z,17.87
2018-01-15T07:03:06.789Z,16.62
2018-01-15T07:05:35.713Z,16.92
2018-01-15T07:08:03.859Z,14.50
2018-01-15T07:10:32.067Z,15.13
2018-01-15T07:13:00.924Z,17.52
2018-01-15T07:15:29.114Z,16.83
2018-01-15T07:17:57.231Z,15.32
2018-01-15T07:20:25.408Z,14.15
2018-01-15T07:22:53.596Z,15.45
2018-01-15T07:25:22.512Z,15.13
2018-01-15T07:27:50.802Z,15.80
2018-01-15T07:30:19.255Z,19.52
2018-01-15T07:32:47.382Z,15.38
2018-01-15T07:35:15.544Z,17.30
2018-01-15T07:37:43.993Z,17.17
2018-01-15T07:40:12.932Z,15.25
2018-01-15T07:42:41.072Z,16.83
2018-01-15T07:45:09.216Z,16.55
2018-01-15T07:47:38.144Z,14.68
2018-01-15T07:50:06.301Z,16.58
2018-01-15T07:52:34.485Z,16.05
2018-01-15T07:55:02.658Z,14.75
2018-01-15T07:57:30.842Z,15.52
2018-01-15T07:59:59.935Z,13.55
2018-01-15T08:02:28.094Z,14.10
2018-01-15T08:04:56.995Z,15.98
2018-01-15T08:07:25.154Z,15.55
2018-01-15T08:09:54.053Z,16.73
2018-01-15T08:12:22.209Z,14.65
2018-01-15T08:14:51.197Z,17.15
2018-01-15T08:17:19.715Z,15.95
2018-01-15T08:19:47.878Z,16.27
2018-01-15T08:22:16.080Z,23.42
2018-01-15T08:24:44.216Z,15.45
2018-01-15T08:27:13.179Z,15.50
2018-01-15T08:29:41.345Z,17.17
2018-01-15T08:32:09.491Z,16.50
2018-01-15T08:34:37.719Z,16.58
2018-01-15T08:37:05.819Z,18.27
2018-01-15T08:39:33.998Z,16.48
2018-01-15T08:42:02.096Z,14.05
2018-01-15T08:44:30.308Z,16.05
2018-01-15T08:46:58.420Z,15.75
2018-01-15T08:49:26.567Z,16.17
2018-01-15T08:51:55.717Z,17.33
2018-01-15T08:54:23.880Z,16.95
2018-01-15T08:56:52.036Z,13.95
2018-01-15T08:59:20.180Z,16.25
2018-01-15T09:01:49.101Z,15.73
2018-01-15T09:04:17.255Z,16.92
2018-01-15T09:06:46.166Z,15.50
2018-01-15T09:09:15.219Z,15.55
2018-01-15T09:11:43.417Z,15.07
2018-01-15T09:14:12.302Z,14.68
2018-01-15T09:16:41.321Z,14.73
2018-01-15T09:19:09.447Z,15.82
2018-01-15T09:21:37.620Z,15.27
2018-01-15T09:24:05.754Z,13.85
2018-01-15T09:26:33.959Z,16.67
2018-01-15T09:29:02.093Z,15.50
2018-01-15T09:31:30.220Z,16.17
2018-01-15T09:33:58.392Z,15.05
2018-01-15T09:36:26.567Z,14.48
2018-01-15T09:38:54.752Z,15.32
2018-01-15T09:41:23.648Z,15.02
2018-01-15T09:43:52.568Z,17.17
2018-01-15T09:46:20.743Z,14.10
2018-01-15T09:48:48.893Z,16.45
2018-01-15T09:51:17.808Z,17.00
2018-01-15T09:53:45.928Z,16.25
2018-01-15T09:56:14.073Z,15.70
2018-01-15T09:58:42.208Z,13.80
2018-01-15T10:01:11.122Z,14.90
2018-01-15T10:03:39.322Z,15.93
2018-01-15T10:06:07.466Z,16.05
2018-01-15T10:08:35.642Z,17.48
2018-01-15T10:11:03.787Z,16.55
2018-01-15T10:13:31.921Z,16.37
2018-01-15T10:16:00.350Z,15.45
2018-01-15T10:18:29.295Z,15.82
2018-01-15T10:20:57.415Z,14.23
2018-01-15T10:23:26.428Z,14.73
2018-01-15T10:25:54.541Z,15.25
2018-01-15T10:28:22.776Z,14.38
2018-01-15T10:30:51.667Z,14.52
2018-01-15T10:33:19.822Z,16.00
2018-01-15T10:35:48.730Z,15.93
2018-01-15T10:38:16.900Z,14.75
2018-01-15T10:40:45.122Z,16.83
2018-01-15T10:43:13.293Z,15.15
2018-01-15T10:45:41.487Z,15.90
2018-01-15T10:48:09.627Z,14.45
2018-01-15T10:50:37.887Z,15.30
2018-01-15T10:53:06.266Z,14.18
2018-01-15T10:55:34.398Z,15.30
2018-01-15T10:58:02.580Z,14.38
2018-01-15T11:00:37.203Z,14.60
2018-01-15T11:03:06.104Z,14.40
2018-01-15T11:05:34.265Z,13.23
2018-01-15T11:08:03.164Z,15.55
2018-01-15T11:10:32.183Z,14.40
2018-01-15T11:13:00.305Z,15.45
2018-01-15T11:15:28.501Z,14.77
2018-01-15T11:17:57.440Z,13.65
2018-01-15T11:20:25.631Z,16.00
2018-01-15T11:22:53.804Z,15.35
2018-01-15T11:25:21.928Z,16.70
2018-01-15T11:27:50.888Z,16.45
2018-01-15T11:30:19.083Z,15.25
2018-01-15T11:32:47.984Z,15.70
2018-01-15T11:35:16.884Z,16.60
2018-01-15T11:37:45.381Z,15.70
2018-01-15T11:40:13.539Z,14.93
2018-01-15T11:42:42.542Z,15.57
2018-01-15T11:45:10.820Z,14.23
2018-01-15T11:47:38.943Z,16.37
2018-01-15T11:50:07.168Z,16.48
2018-01-15T11:52:35.290Z,15.82
2018-01-15T11:55:03.517Z,15.45
2018-01-15T11:57:31.693Z,14.18
2018-01-15T11:59:59.826Z,15.07
2018-01-15T12:02:28.018Z,17.17
2018-01-15T12:04:57.034Z,14.02
2018-01-15T12:07:25.167Z,17.02
2018-01-15T12:09:53.348Z,15.63
2018-01-15T12:12:22.272Z,16.40
2018-01-15T12:14:50.465Z,16.35
2018-01-15T12:17:18.576Z,14.45
2018-01-15T12:19:46.721Z,16.90
2018-01-15T12:22:14.884Z,15.75
2018-01-15T12:24:43.040Z,16.65
2018-01-15T12:27:11.167Z,15.13
2018-01-15T12:29:39.316Z,13.90
2018-01-15T12:32:07.453Z,16.52
2018-01-15T12:34:35.647Z,13.88
2018-01-15T12:37:03.765Z,13.10
2018-01-15T12:39:31.952Z,14.65
2018-01-15T12:42:00.896Z,15.25
2018-01-15T12:44:29.032Z,12.65
2018-01-15T12:46:57.991Z,10.68
2018-01-15T12:49:26.156Z,10.00
2018-01-15T12:51:54.375Z,8.93
2018-01-15T12:54:23.340Z,7.68
2018-01-15T12:56:51.456Z,6.47
2018-01-15T12:59:19.632Z,8.55
2018-01-15T13:01:47.781Z,6.80
2018-01-15T13:04:15.936Z,6.37
2018-01-15T13:06:55.890Z,7.37
2018-01-15T13:09:24.040Z,7.20
2018-01-15T13:11:52.183Z,7.45
2018-01-15T13:14:20.308Z,8.00
2018-01-15T13:16:48.444Z,6.25
2018-01-15T13:19:16.619Z,6.68
2018-01-15T13:21:44.777Z,6.80
2018-01-15T13:24:12.944Z,6.65
2018-01-15T13:26:41.085Z,6.47
2018-01-15T13:29:10.317Z,7.05
2018-01-15T13:31:39.238Z,6.40
2018-01-15T13:34:07.401Z,5.72
2018-01-15T13:36:35.556Z,6.80
2018-01-15T13:39:03.668Z,5.93
2018-01-15T13:41:31.845Z,5.12
2018-01-15T13:43:59.976Z,6.47
2018-01-15T13:46:28.123Z,5.60
2018-01-15T13:48:57.011Z,6.37
2018-01-15T13:51:25.187Z,6.90
2018-01-15T13:53:53.366Z,7.15
2018-01-15T13:56:22.341Z,6.50
2018-01-15T13:58:50.458Z,7.90
2018-01-15T14:01:18.704Z,7.03
2018-01-15T14:03:46.842Z,8.13
2018-01-15T14:06:15.036Z,7.28
2018-01-15T14:08:43.240Z,7.07
2018-01-15T14:11:12.174Z,7.20
2018-01-15T14:13:40.309Z,7.05
2018-01-15T14:16:08.448Z,8.20
2018-01-15T14:18:36.621Z,7.32
2018-01-15T14:21:04.770Z,7.78
2018-01-15T14:23:32.962Z,7.20
2018-01-15T14:26:01.165Z,8.63
2018-01-15T14:28:30.112Z,7.55
2018-01-15T14:30:58.276Z,6.47
2018-01-15T14:33:26.430Z,7.20
2018-01-15T14:35:54.628Z,6.20
2018-01-15T14:38:22.801Z,7.10
2018-01-15T14:40:51.780Z,7.30
2018-01-15T14:43:20.000Z,7.95
2018-01-15T14:45:48.229Z,6.85
2018-01-15T14:48:16.382Z,7.50
2018-01-15T14:50:45.305Z,5.72
2018-01-15T14:53:13.486Z,7.35
2018-01-15T14:55:41.664Z,5.93
2018-01-15T14:58:09.875Z,6.10
2018-01-15T15:00:38.054Z,5.57
2018-01-15T15:03:06.210Z,5.45
2018-01-15T15:05:34.318Z,5.90
2018-01-15T15:08:03.248Z,4.97
2018-01-15T15:10:31.360Z,5.82
2018-01-15T15:12:59.601Z,5.90
2018-01-15T15:15:27.720Z,5.45
2018-01-15T15:17:57.555Z,5.28
2018-01-15T15:20:25.744Z,5.97
2018-01-15T15:22:53.920Z,6.10
2018-01-15T15:25:22.096Z,6.97
2018-01-15T15:27:50.291Z,6.05
2018-01-15T15:30:18.469Z,4.90
2018-01-15T15:32:46.612Z,4.72
2018-01-15T15:35:14.781Z,4.85
2018-01-15T15:37:42.960Z,4.53
2018-01-15T15:40:11.113Z,4.65
2018-01-15T15:42:40.123Z,4.15
2018-01-15T15:45:08.994Z,4.53
2018-01-15T15:47:37.921Z,3.87
2018-01-15T15:50:06.182Z,3.72
2018-01-15T15:52:34.336Z,3.53
2018-01-15T15:55:03.304Z,4.05
2018-01-15T15:57:31.522Z,3.75
2018-01-15T16:00:00.491Z,3.45
2018-01-15T16:02:29.435Z,3.90
2018-01-15T16:04:57.600Z,3.37
2018-01-15T16:07:25.733Z,2.72
2018-01-15T16:09:54.001Z,3.20
2018-01-15T16:12:22.165Z,2.75
2018-01-15T16:14:51.172Z,3.65
2018-01-15T16:17:20.090Z,2.42
2018-01-15T16:19:48.260Z,3.20
2018-01-15T16:22:28.453Z,2.55
2018-01-15T16:24:56.597Z,2.97
2018-01-15T16:27:24.781Z,2.50
2018-01-15T16:29:53.006Z,2.37
2018-01-15T16:32:21.940Z,2.30
2018-01-15T16:34:50.154Z,2.40
2018-01-15T16:37:18.355Z,2.87
2018-01-15T16:39:46.516Z,2.50
2018-01-15T16:42:15.452Z,2.60
2018-01-15T16:44:44.018Z,1.92
2018-01-15T16:47:12.953Z,2.08
2018-01-15T16:49:41.104Z,2.35
2018-01-15T16:52:09.236Z,1.98
2018-01-15T16:54:37.414Z,2.20
2018-01-15T16:57:05.575Z,2.30
2018-01-15T16:59:33.763Z,2.30
2018-01-15T17:02:01.974Z,2.35
2018-01-15T17:04:30.104Z,2.20
2018-01-15T17:06:58.320Z,2.20
2018-01-15T17:09:26.451Z,1.90
2018-01-15T17:11:54.583Z,2.40
2018-01-15T17:14:22.727Z,2.10
2018-01-15T17:16:50.847Z,2.20
2018-01-15T17:19:19.084Z,2.55
2018-01-15T17:21:47.212Z,2.10
2018-01-15T17:24:15.352Z,1.90
2018-01-15T17:26:43.524Z,1.77
2018-01-15T17:29:11.788Z,1.83
2018-01-15T17:31:39.921Z,2.10
2018-01-15T17:34:08.129Z,3.15
2018-01-15T17:36:37.365Z,1.77
2018-01-15T17:39:05.468Z,2.20
2018-01-15T17:41:33.583Z,1.70
2018-01-15T17:44:01.712Z,1.67
2018-01-15T17:46:29.861Z,1.60
2018-01-15T17:48:58.077Z,2.47
2018-01-15T17:51:26.956Z,2.47
2018-01-15T17:53:55.341Z,1.37
2018-01-15T17:56:23.452Z,2.85
2018-01-15T17:58:51.582Z,1.85
2018-01-15T18:01:19.748Z,1.70
2018-01-15T18:03:47.967Z,1.25
2018-01-15T18:06:16.396Z,1.60
2018-01-15T18:08:44.524Z,1.58
2018-01-15T18:11:12.651Z,1.10
2018-01-15T18:13:40.850Z,1.25
2018-01-15T18:16:09.762Z,1.40
2018-01-15T18:18:37.944Z,1.98
2018-01-15T18:21:06.051Z,1.58
2018-01-15T18:23:34.212Z,1.40
2018-01-15T18:26:02.328Z,2.05
2018-01-15T18:28:31.229Z,1.10
2018-01-15T18:31:00.172Z,1.55
2018-01-15T18:33:28.327Z,1.70
2018-01-15T18:35:56.467Z,1.15
2018-01-15T18:38:25.376Z,1.20
2018-01-15T18:40:53.549Z,1.00
2018-01-15T18:43:21.724Z,2.10
2018-01-15T18:45:49.892Z,1.20
2018-01-15T18:48:18.031Z,1.90
2018-01-15T18:50:46.145Z,1.17
2018-01-15T18:53:14.420Z,0.90
2018-01-15T18:55:43.286Z,0.73
2018-01-15T18:58:12.217Z,1.00
2018-01-15T19:00:40.383Z,0.90
2018-01-15T19:03:08.500Z,1.77
2018-01-15T19:05:36.725Z,0.85
2018-01-15T19:08:05.588Z,0.85
2018-01-15T19:10:34.508Z,1.37
2018-01-15T19:13:02.611Z,0.60
2018-01-15T19:15:31.067Z,0.82
2018-01-15T19:17:59.236Z,0.60
2018-01-15T19:20:28.125Z,1.05
2018-01-15T19:22:56.236Z,0.90
2018-01-15T19:25:24.372Z,0.85
2018-01-15T19:27:52.497Z,0.82
2018-01-15T19:30:20.618Z,1.02
2018-01-15T19:32:48.737Z,0.80
2018-01-15T19:35:22.568Z,1.05
2018-01-15T19:37:50.701Z,1.05
2018-01-15T19:40:18.818Z,1.50
2018-01-15T19:42:46.942Z,0.80
2018-01-15T19:45:20.853Z,0.80
2018-01-15T19:47:54.588Z,0.70
2018-01-15T19:50:28.320Z,0.80
2018-01-15T19:53:02.179Z,0.82
2018-01-15T19:55:36.160Z,0.90
2018-01-15T19:58:09.882Z,0.98
2018-01-15T20:00:43.613Z,1.12
2018-01-15T20:03:18.209Z,0.80
2018-01-15T20:09:03.756Z,0.70
2018-01-15T20:11:31.888Z,1.05
2018-01-15T20:14:00.727Z,0.60
2018-01-15T20:16:29.711Z,0.70
2018-01-15T20:18:57.848Z,1.08
2018-01-15T20:21:26.048Z,0.80
2018-01-15T20:23:54.208Z,0.80
2018-01-15T20:26:22.336Z,1.00
2018-01-15T20:28:50.475Z,0.80
2018-01-15T20:31:18.948Z,0.93
2018-01-15T20:33:47.067Z,1.00
2018-01-15T20:36:15.255Z,0.80
2018-01-15T20:38:43.367Z,1.02
2018-01-15T20:41:11.508Z,0.60
2018-01-15T20:43:39.636Z,0.60
2018-01-15T20:46:08.548Z,1.00
2018-01-15T20:48:36.705Z,1.02
2018-01-15T20:51:05.634Z,1.02
2018-01-15T20:53:33.799Z,0.90
2018-01-15T20:56:02.166Z,0.68
2018-01-15T20:58:30.305Z,1.00
2018-01-15T21:00:58.428Z,0.65
2018-01-15T21:03:26.574Z,0.65
2018-01-15T21:05:55.464Z,0.95
2018-01-15T21:08:24.437Z,0.75
2018-01-15T21:10:52.596Z,0.98
2018-01-15T21:13:20.797Z,1.00
2018-01-15T21:15:49.717Z,0.77
2018-01-15T21:18:17.843Z,0.95
2018-01-15T21:20:46.169Z,0.60
2018-01-15T21:23:14.716Z,0.70
2018-01-15T21:25:43.641Z,2.87
2018-01-15T21:28:11.773Z,0.70
2018-01-15T21:30:39.924Z,0.80
2018-01-15T21:33:08.056Z,0.90
2018-01-15T21:35:36.334Z,1.00
2018-01-15T21:38:05.376Z,0.80
2018-01-15T21:40:34.488Z,0.85
2018-01-15T21:43:02.625Z,0.70
2018-01-15T21:45:30.752Z,0.80
2018-01-15T21:47:59.729Z,0.93
2018-01-15T21:50:28.692Z,0.60
2018-01-15T21:52:56.906Z,0.80
2018-01-15T21:55:25.040Z,1.08
2018-01-15T21:57:53.155Z,0.90
2018-01-15T22:00:22.058Z,0.88
2018-01-15T22:02:50.947Z,1.77
2018-01-15T22:05:20.096Z,1.25
2018-01-15T22:07:48.200Z,1.75
2018-01-15T22:10:16.349Z,1.37
2018-01-15T22:12:44.484Z,1.25
2018-01-15T22:15:12.617Z,1.12
2018-01-15T22:17:40.756Z,1.10
2018-01-15T22:20:08.904Z,1.80
2018-01-15T22:22:37.048Z,1.33
2018-01-15T22:25:05.935Z,1.70
2018-01-15T22:27:34.864Z,1.75
2018-01-15T22:30:03.030Z,2.08
2018-01-15T22:32:31.147Z,1.40
2018-01-15T22:34:59.280Z,1.50
2018-01-15T22:37:27.424Z,1.20
2018-01-15T22:39:57.136Z,1.48
2018-01-15T22:42:26.110Z,1.30
2018-01-15T22:44:54.223Z,1.00
2018-01-15T22:47:22.583Z,2.05
2018-01-15T22:49:51.464Z,1.80
2018-01-15T22:52:20.439Z,1.52
2018-01-15T22:54:48.582Z,1.10
2018-01-15T22:57:16.714Z,1.42
2018-01-15T22:59:45.672Z,1.77
2018-01-15T23:02:13.798Z,0.90
2018-01-15T23:04:42.293Z,1.23
2018-01-15T23:07:10.433Z,1.20
2018-01-15T23:09:39.344Z,1.23
2018-01-15T23:12:07.496Z,1.35
2018-01-15T23:14:36.376Z,1.20
2018-01-15T23:17:04.493Z,1.33
2018-01-15T23:19:32.604Z,2.10
2018-01-15T23:22:00.744Z,1.83
2018-01-15T23:24:28.853Z,2.00
2018-01-15T23:26:56.968Z,1.23
2018-01-15T23:29:25.091Z,1.55
2018-01-15T23:31:53.213Z,1.62
2018-01-15T23:34:21.362Z,1.23
2018-01-15T23:36:49.486Z,1.70
2018-01-15T23:39:17.636Z,1.02
2018-01-15T23:41:45.781Z,1.10
2018-01-15T23:44:13.913Z,1.15
2018-01-15T23:46:42.036Z,1.37
2018-01-15T23:49:10.927Z,1.08
2018-01-15T23:51:39.827Z,1.08
2018-01-15T23:54:08.738Z,1.20
2018-01-15T23:56:37.122Z,0.90
2018-01-15T23:59:05.236Z,0.80
